aviador You're here:

KSPF Decoded Metar

SPEARFISH/CLYDE in SD, USA
Report Time2018-02-22 06:35:00
UTC Time2018-02-22 06:39:54
Flight Rules vfr VFR
WindCalm
Visibility9999 m
Phenomena:N/A
Clouds:N/A
Expected CloudBase > 2,800 ft AGL from Temp-Dew spread
CeilingNone
Temp-13°C (ISA -20)
Dew Point-20°C (56% RH)
AAT-16.6°C
QNH1020 hPa
Density Alt1,165 ft
Elevation3,898 ft
Report Wrong Elevation
Raw Report
METAR KSPF 220635Z AUTO 00000KT 10SM M13/M20 A3012 RMK AO2=

Extra information for KSPF:More info

Metar Taf Metar & Taf Last 4 Metars F.Rules Stats Wind Profile Meteogram Temp Stats Airport Information Weather charts Add Link Nearby VenuesMetar ALERT Operation Metar Decoded Social comments

AIRNAV info for KSPF